Nutting Lake, Massachusetts
Current Conditions -  °F | °C
As of 4:56 PM on Friday 28 Nov 2014 (Local Time) from KBED Reporting Station
Few Clouds Few Clouds  
Wind Chill: 21°   Ceiling: Unl
Heat Index: 29°   Visibility: 10mi
Dew Point: 15°   Wind: 8mph
Humidity: 56%   Direction: 310°NW
Pressure: 30.11"   Gusts: NA
Location:  42.54°N, 71.27°W
Report Text: KBED 282156Z 31007KT 10SM FEW055 M02/M09 A3011 RMK AO2 SLP214 T10171094
Loading
Personal Weather Stations






























Interactive Weather Map New forecast layout! Learn more

10-Day Weather Forecast

Advertisements
Track Severe Weather on mobile